Historyczne dane pomiarowe

Dodano dane terminowe – wersja testowa.

Dane z okresu 1951-2019

Wersja bazy: 1.34 [2019-03-16, lista zmian], aktualizacja planowana na 2019-04-15

Dane meteo z obszaru Polski uzyskane na podstawie danych udostępnionych przez Instytut Meteorologii i Gospodarki Wodnej – Państwowy Instytut Badawczy.

 

Wybierz Datę:    

       

TemperaturaWilgotnośćWiatrCiśnienieOpadyŚniegCzas trwania zjawisk
 Stacja t tx tn tng RH VA  wxwx mslp ppp RRR   cm mm wxwxwxwxwxwxwx
1983-04-17 6.6 14.0 -3.0 -2.9 68.5- 0.7 2.0---- 0.0------------
1983-04-18 7.6 12.6 0.5 -1.5 49.3- 4.0 5.7---- 0.0------------
1983-04-19 8.4 15.8 0.3 -1.2 60.8- 4.3 5.0---- 0.0------------
1983-04-20 11.3 18.3 7.3 5.2 68.5- 4.3 5.3---- 0.0------------
1983-04-21 12.4 22.4 1.5 -0.2 70.0- 0.3 3.0---- 0.0------------
1983-04-22 18.2 25.1 10.6 8.8 58.0- 6.3 4.7---- 1.2------------
1983-04-23 15.8 21.4 12.5 11.8 83.5- 7.0 1.7---- 0.0------------
1983-04-24 15.0 20.9 9.5 8.7 80.5- 5.3 2.3---- 0.8------------
1983-04-25 13.6 21.7 8.0 6.9 86.0- 5.0 2.0---- 7.7------------
1983-04-26 13.0 17.4 8.3 7.5 81.5- 3.0 2.0---- 0.0------------
1983-04-27 14.3 24.2 8.0 7.4 80.8- 5.0 4.0---- 9.9------------
1983-04-28 14.9 19.4 11.2 10.0 62.8- 4.7 3.0---- 0.0------------
1983-04-29 14.5 21.2 7.9 5.5 63.0- 2.3 2.7---- 0.5------------
1983-04-30 13.5 16.5 10.9 9.3 74.5- 5.3 3.7---- 0.0------------
1983-05-01 12.0 18.8 4.3 3.7 67.8- 0.7 2.7---- 0.0------------
1983-05-02 11.2 13.8 8.9 7.4 77.8- 8.0 6.0---- 9.4------------
1983-05-03 11.9 16.9 6.3 6.2 71.3- 5.3 4.0---- 2.2------------
1983-05-04 10.6 14.6 6.8 6.8 80.8- 3.7 2.3---- 9.7------------
1983-05-05 8.6 12.1 6.0 6.3 88.5- 7.3 3.3---- 0.8------------
1983-05-06 8.7 12.5 5.5 5.6 79.0- 7.3 1.3---- 0.0------------
1983-05-07 11.0 16.0 5.9 4.2 71.0- 5.0 2.3---- 0.0------------
1983-05-08 10.0 16.4 2.0 1.2 65.0- 2.7 3.3---- 0.0------------
1983-05-09 10.8 15.5 5.2 3.9 72.8- 6.7 3.3---- 8.9------------
1983-05-10 12.6 15.6 9.9 9.9 83.0- 5.3 3.0---- 0.0------------
1983-05-11 12.9 19.7 5.3 5.1 84.8- 7.3 3.0---- 4.1------------
1983-05-12 14.7 19.8 11.0 8.9 74.3- 5.3 3.7---- 0.0------------
1983-05-13 18.4 25.0 9.1 6.2 65.0- 3.3 3.0---- 0.0------------
1983-05-14 17.0 22.4 11.7 10.5 79.5- 1.3 2.7---- 0.0------------
1983-05-15 19.6 26.8 12.6 11.2 75.0- 4.7 3.3---- 0.0------------
1983-05-16 24.8 32.9 15.8 14.3 55.5- 1.7 4.0---- 0.0------------
141.5 ms

 

Źródłem pochodzenia danych jest Instytut Meteorologii i Gospodarki Wodnej – Państwowy Instytut Badawczy. Dane Instytutu Meteorologii i Gospodarki Wodnej – Państwowego Instytutu Badawczego zostały przetworzone.

Dane źródłowe można odnaleźć na stronie https://dane.imgw.pl